Time;durP1;ratioP1;P1;durP2;ratioP2;P2;SDS_P1;SDS_P2;PMS_P1;PMS_P2;Temp;Humidity;BMP_temperature;BMP_pressure;BME280_temperature;BME280_humidity;BME280_pressure;Samples;Min_cycle;Max_cycle;Signal;HPM_P1;HPM_P2
2022/05/22 00:01:37;;;;;;;9.13;4.78;;;;;;;;;;5063721;28;20123;-61
2022/05/22 00:04:04;;;;;;;12.10;4.88;;;;;;;;;;5064450;28;20028;-61
2022/05/22 00:06:29;;;;;;;12.98;5.63;;;;;;;;;;5055331;28;20504;-60
2022/05/22 00:08:55;;;;;;;9.25;4.45;;;;;;;;;;5064499;28;20044;-61
2022/05/22 00:11:22;;;;;;;9.23;4.88;;;;;;;;;;5064367;28;20023;-61
2022/05/22 00:13:49;;;;;;;13.65;4.95;;;;;;;;;;5062061;28;20054;-61
2022/05/22 00:19:00;;;;;;;9.32;5.07;;;;;;;;;;5063992;28;20492;-61
2022/05/22 00:21:26;;;;;;;9.52;4.57;;;;;;;;;;5065480;28;20568;-61
2022/05/22 00:23:52;;;;;;;17.25;5.38;;;;;;;;;;5058969;28;20029;-60
2022/05/22 00:26:18;;;;;;;11.68;4.63;;;;;;;;;;5056217;28;20034;-61
2022/05/22 00:28:43;;;;;;;7.72;4.45;;;;;;;;;;5054420;28;20108;-61
2022/05/22 00:31:10;;;;;;;10.88;4.65;;;;;;;;;;5069410;28;20086;-60
2022/05/22 00:33:36;;;;;;;7.85;4.35;;;;;;;;;;5060748;28;20029;-61
2022/05/22 00:36:02;;;;;;;7.38;4.78;;;;;;;;;;5060546;28;20036;-61
2022/05/22 00:38:28;;;;;;;6.80;4.35;;;;;;;;;;5065780;28;20031;-61
2022/05/22 00:40:54;;;;;;;8.27;4.28;;;;;;;;;;5058548;28;20040;-61
2022/05/22 00:43:31;;;;;;;8.18;4.93;;;;;;;;;;5059108;28;20037;-60
2022/05/22 00:45:58;;;;;;;12.45;4.50;;;;;;;;;;5056800;28;20027;-61
2022/05/22 00:48:25;;;;;;;9.07;4.60;;;;;;;;;;5059512;28;20066;-61
2022/05/22 00:50:52;;;;;;;11.02;4.82;;;;;;;;;;5065985;28;20032;-61
2022/05/22 00:53:21;;;;;;;8.93;4.63;;;;;;;;;;5064377;28;20090;-60
2022/05/22 00:55:47;;;;;;;11.95;4.82;;;;;;;;;;5051886;28;20048;-61
2022/05/22 00:58:19;;;;;;;14.73;4.72;;;;;;;;;;5058378;28;20090;-61
2022/05/22 01:00:45;;;;;;;12.20;4.72;;;;;;;;;;5054031;28;20037;-60
2022/05/22 01:03:28;;;;;;;13.95;4.78;;;;;;;;;;5055620;28;20041;-60
2022/05/22 01:06:02;;;;;;;8.27;4.80;;;;;;;;;;5062982;28;20115;-60
2022/05/22 01:08:29;;;;;;;9.30;4.50;;;;;;;;;;5072636;28;20024;-61
2022/05/22 01:10:59;;;;;;;8.43;4.78;;;;;;;;;;5060808;28;20035;-60
2022/05/22 01:13:34;;;;;;;10.80;4.78;;;;;;;;;;5066778;28;20113;-61
2022/05/22 01:16:02;;;;;;;8.38;4.70;;;;;;;;;;5056821;28;20032;-60
2022/05/22 01:18:28;;;;;;;9.40;5.07;;;;;;;;;;5054747;28;20504;-61
2022/05/22 01:20:54;;;;;;;8.38;5.20;;;;;;;;;;5055087;28;20058;-61
2022/05/22 01:23:22;;;;;;;10.10;4.60;;;;;;;;;;5057569;28;20051;-60
2022/05/22 01:25:48;;;;;;;7.85;4.53;;;;;;;;;;5061468;28;20056;-61
2022/05/22 01:28:18;;;;;;;9.38;4.65;;;;;;;;;;5065312;28;20024;-60
2022/05/22 01:30:43;;;;;;;7.45;4.45;;;;;;;;;;5056055;28;20085;-62
2022/05/22 01:33:09;;;;;;;11.68;4.97;;;;;;;;;;5066753;28;20437;-61
2022/05/22 01:35:36;;;;;;;6.82;4.40;;;;;;;;;;5066934;28;20033;-61
2022/05/22 01:38:04;;;;;;;7.05;4.22;;;;;;;;;;5065311;28;20111;-61
2022/05/22 01:40:30;;;;;;;7.22;4.43;;;;;;;;;;5059144;28;20638;-60
2022/05/22 01:42:55;;;;;;;7.53;4.82;;;;;;;;;;5067275;28;20036;-61
2022/05/22 01:45:24;;;;;;;8.23;4.18;;;;;;;;;;5060973;28;20481;-61
2022/05/22 01:47:50;;;;;;;5.32;4.45;;;;;;;;;;5055240;28;20029;-60
2022/05/22 01:50:17;;;;;;;5.47;4.07;;;;;;;;;;5053967;28;20017;-61
2022/05/22 01:52:43;;;;;;;5.93;4.00;;;;;;;;;;5062500;28;20602;-60
2022/05/22 01:55:11;;;;;;;15.35;4.63;;;;;;;;;;5051280;28;20068;-61
2022/05/22 01:57:37;;;;;;;11.82;4.45;;;;;;;;;;5068004;28;20150;-60
2022/05/22 02:00:09;;;;;;;12.80;4.35;;;;;;;;;;5057256;28;20520;-61
2022/05/22 02:02:35;;;;;;;9.15;4.40;;;;;;;;;;5060734;28;20027;-61
2022/05/22 02:05:02;;;;;;;9.00;4.18;;;;;;;;;;5057950;28;20032;-60
2022/05/22 02:10:13;;;;;;;8.02;4.40;;;;;;;;;;5065873;28;20040;-60
2022/05/22 02:12:39;;;;;;;11.32;5.28;;;;;;;;;;5051768;28;20055;-61
2022/05/22 02:15:05;;;;;;;6.53;3.92;;;;;;;;;;5060957;28;20028;-61
2022/05/22 02:17:32;;;;;;;6.75;4.28;;;;;;;;;;5060624;28;20033;-61
2022/05/22 02:19:57;;;;;;;7.22;4.55;;;;;;;;;;5051910;28;20048;-61
2022/05/22 02:22:24;;;;;;;7.53;4.38;;;;;;;;;;5067684;28;20056;-60
2022/05/22 02:24:51;;;;;;;10.50;4.07;;;;;;;;;;5061513;28;20051;-60
2022/05/22 02:27:17;;;;;;;10.50;4.10;;;;;;;;;;5064118;28;20111;-60
2022/05/22 02:29:43;;;;;;;10.90;4.65;;;;;;;;;;5066864;28;20036;-61
2022/05/22 02:32:09;;;;;;;8.88;4.22;;;;;;;;;;5060105;28;20078;-61
2022/05/22 02:34:34;;;;;;;10.98;4.47;;;;;;;;;;5056075;28;20032;-60
2022/05/22 02:37:00;;;;;;;9.13;4.63;;;;;;;;;;5069516;28;20024;-60
2022/05/22 02:39:26;;;;;;;7.93;4.20;;;;;;;;;;5064148;28;20499;-61
2022/05/22 02:41:52;;;;;;;7.80;4.07;;;;;;;;;;5062811;28;20059;-61
2022/05/22 02:44:18;;;;;;;6.03;3.83;;;;;;;;;;5058287;28;20038;-60
2022/05/22 02:46:43;;;;;;;8.43;4.10;;;;;;;;;;5059237;28;20054;-61
2022/05/22 02:49:09;;;;;;;11.40;4.50;;;;;;;;;;5056468;28;20025;-61
2022/05/22 02:51:35;;;;;;;11.20;4.28;;;;;;;;;;5052910;28;20368;-60
2022/05/22 02:54:01;;;;;;;5.38;4.15;;;;;;;;;;5065319;28;20030;-61
2022/05/22 02:56:27;;;;;;;9.65;4.35;;;;;;;;;;5048777;28;20385;-61
2022/05/22 02:58:53;;;;;;;7.22;4.82;;;;;;;;;;5065299;28;20106;-61
2022/05/22 03:01:19;;;;;;;7.45;4.72;;;;;;;;;;5058031;28;20536;-61
2022/05/22 03:03:45;;;;;;;10.05;3.97;;;;;;;;;;5052443;28;20036;-61
2022/05/22 03:08:55;;;;;;;5.80;4.07;;;;;;;;;;5058014;28;20033;-61
2022/05/22 03:11:21;;;;;;;8.95;4.00;;;;;;;;;;5063063;28;20029;-60
2022/05/22 03:13:47;;;;;;;9.27;4.50;;;;;;;;;;5062093;28;20040;-61
2022/05/22 03:16:13;;;;;;;8.65;4.47;;;;;;;;;;5055208;28;20224;-61
2022/05/22 03:18:39;;;;;;;5.78;3.75;;;;;;;;;;5069577;28;20024;-60
2022/05/22 03:21:05;;;;;;;11.98;4.32;;;;;;;;;;5060561;28;20028;-60
2022/05/22 03:23:30;;;;;;;8.27;4.68;;;;;;;;;;5059415;28;20057;-60
2022/05/22 03:25:56;;;;;;;12.80;4.05;;;;;;;;;;5070140;28;20025;-60
2022/05/22 03:28:23;;;;;;;6.57;4.18;;;;;;;;;;5064178;28;20025;-61
2022/05/22 03:30:49;;;;;;;11.90;4.45;;;;;;;;;;5074744;28;20044;-60
2022/05/22 03:33:16;;;;;;;8.77;4.55;;;;;;;;;;5066510;28;20032;-60
2022/05/22 03:35:42;;;;;;;11.82;3.90;;;;;;;;;;5064836;28;20489;-60
2022/05/22 03:38:07;;;;;;;10.05;4.55;;;;;;;;;;5056233;28;20029;-60
2022/05/22 03:40:40;;;;;;;6.28;4.03;;;;;;;;;;5058994;28;20139;-60
2022/05/22 03:43:05;;;;;;;7.47;4.30;;;;;;;;;;5059663;28;20480;-60
2022/05/22 03:45:31;;;;;;;8.75;4.22;;;;;;;;;;5063744;28;20102;-60
2022/05/22 03:47:57;;;;;;;6.53;4.03;;;;;;;;;;5067360;28;20059;-61
2022/05/22 03:50:24;;;;;;;10.75;4.20;;;;;;;;;;5056908;28;20033;-60
2022/05/22 03:52:51;;;;;;;9.48;4.00;;;;;;;;;;5066726;28;20018;-61
2022/05/22 03:55:18;;;;;;;8.40;4.10;;;;;;;;;;5053468;28;20049;-60
2022/05/22 03:57:47;;;;;;;7.70;4.72;;;;;;;;;;5055124;28;20033;-61
2022/05/22 04:00:16;;;;;;;13.38;4.63;;;;;;;;;;5064641;28;20210;-60
2022/05/22 04:02:42;;;;;;;6.72;3.95;;;;;;;;;;5050456;28;20509;-61
2022/05/22 04:05:09;;;;;;;6.80;4.13;;;;;;;;;;5057869;28;20024;-60
2022/05/22 04:07:43;;;;;;;7.70;3.97;;;;;;;;;;5074467;28;20036;-60
2022/05/22 04:10:11;;;;;;;7.88;4.00;;;;;;;;;;5068050;28;20020;-60
2022/05/22 04:12:37;;;;;;;5.38;3.72;;;;;;;;;;5062516;28;20422;-59
2022/05/22 04:15:08;;;;;;;10.15;4.18;;;;;;;;;;5065516;28;20033;-60
2022/05/22 04:17:35;;;;;;;10.32;3.85;;;;;;;;;;5066424;28;20024;-59
2022/05/22 04:20:00;;;;;;;5.50;4.03;;;;;;;;;;5068336;28;20478;-60
2022/05/22 04:22:26;;;;;;;4.78;3.60;;;;;;;;;;5071905;28;20064;-60
2022/05/22 04:25:11;;;;;;;7.55;4.18;;;;;;;;;;5062374;28;20080;-60
2022/05/22 04:27:46;;;;;;;5.88;3.90;;;;;;;;;;5066309;28;20143;-60
2022/05/22 04:30:18;;;;;;;4.10;3.05;;;;;;;;;;5066567;28;20035;-60
2022/05/22 04:32:49;;;;;;;7.82;3.53;;;;;;;;;;5057930;28;20408;-60
2022/05/22 04:35:16;;;;;;;6.80;3.40;;;;;;;;;;5058093;28;20029;-60
2022/05/22 04:37:41;;;;;;;5.93;3.72;;;;;;;;;;5061525;28;20513;-61
2022/05/22 04:40:10;;;;;;;4.10;3.38;;;;;;;;;;5066008;28;20055;-61
2022/05/22 04:42:37;;;;;;;11.75;4.13;;;;;;;;;;5062208;28;20024;-61
2022/05/22 04:45:05;;;;;;;7.43;3.72;;;;;;;;;;5066799;28;20028;-60
2022/05/22 04:47:30;;;;;;;8.10;3.72;;;;;;;;;;5069329;28;20116;-59
2022/05/22 04:49:56;;;;;;;7.05;3.45;;;;;;;;;;5057750;28;20115;-61
2022/05/22 04:52:22;;;;;;;8.45;4.05;;;;;;;;;;5056215;28;20025;-61
2022/05/22 04:54:48;;;;;;;6.18;3.92;;;;;;;;;;5071318;28;20041;-58
2022/05/22 04:57:13;;;;;;;5.05;3.85;;;;;;;;;;5065655;28;20377;-59
2022/05/22 04:59:40;;;;;;;6.68;3.88;;;;;;;;;;5059303;28;20424;-61
2022/05/22 05:02:06;;;;;;;9.00;4.30;;;;;;;;;;5062651;28;20031;-61
2022/05/22 05:04:32;;;;;;;6.45;3.92;;;;;;;;;;5060291;28;20401;-60
2022/05/22 05:06:58;;;;;;;5.57;3.45;;;;;;;;;;5069406;28;20025;-61
2022/05/22 05:09:24;;;;;;;6.68;3.42;;;;;;;;;;5068461;28;20438;-60
2022/05/22 05:11:49;;;;;;;11.15;3.65;;;;;;;;;;5054973;28;20036;-59
2022/05/22 05:14:15;;;;;;;5.95;3.53;;;;;;;;;;5052555;28;20043;-61
2022/05/22 05:16:41;;;;;;;8.77;3.88;;;;;;;;;;5057561;28;20417;-60
2022/05/22 05:19:06;;;;;;;9.02;4.00;;;;;;;;;;5059165;28;20032;-60
2022/05/22 05:21:32;;;;;;;8.25;3.88;;;;;;;;;;5062113;28;20043;-61
2022/05/22 05:23:58;;;;;;;6.32;3.60;;;;;;;;;;5054851;28;20037;-60
2022/05/22 05:26:24;;;;;;;9.20;3.33;;;;;;;;;;5054445;28;20031;-60
2022/05/22 05:28:50;;;;;;;8.52;3.42;;;;;;;;;;5057712;28;20538;-61
2022/05/22 05:31:15;;;;;;;4.75;3.58;;;;;;;;;;5064583;28;20982;-60
2022/05/22 05:33:41;;;;;;;10.93;3.85;;;;;;;;;;5060065;28;20055;-60
2022/05/22 05:36:09;;;;;;;6.50;3.58;;;;;;;;;;5066710;28;20043;-61
2022/05/22 05:38:35;;;;;;;6.00;3.10;;;;;;;;;;5060066;28;20458;-60
2022/05/22 05:41:01;;;;;;;4.40;2.90;;;;;;;;;;5061464;28;20484;-60
2022/05/22 05:43:27;;;;;;;11.35;3.70;;;;;;;;;;5060305;28;20079;-61
2022/05/22 05:45:53;;;;;;;5.28;3.40;;;;;;;;;;5061337;28;20021;-60
2022/05/22 05:48:18;;;;;;;8.43;2.92;;;;;;;;;;5058289;28;20036;-59
2022/05/22 05:50:44;;;;;;;10.40;3.40;;;;;;;;;;5059578;28;20043;-60
2022/05/22 05:53:09;;;;;;;12.48;3.50;;;;;;;;;;5066222;28;20028;-61
2022/05/22 05:55:35;;;;;;;4.93;3.00;;;;;;;;;;5062501;28;20391;-62
2022/05/22 05:58:03;;;;;;;8.88;3.70;;;;;;;;;;5059366;28;20059;-61
2022/05/22 06:00:29;;;;;;;7.68;3.85;;;;;;;;;;5066191;28;20464;-60
2022/05/22 06:02:55;;;;;;;6.55;3.70;;;;;;;;;;5059390;28;20112;-60
2022/05/22 06:05:22;;;;;;;6.63;3.47;;;;;;;;;;5066448;28;20123;-60
2022/05/22 06:07:51;;;;;;;4.95;3.28;;;;;;;;;;5057215;28;20055;-60
2022/05/22 06:10:19;;;;;;;9.25;3.65;;;;;;;;;;5073102;28;20750;-60
2022/05/22 06:12:46;;;;;;;5.43;3.60;;;;;;;;;;5056991;28;20493;-60
2022/05/22 06:15:13;;;;;;;7.18;3.55;;;;;;;;;;5058734;28;20036;-60
2022/05/22 06:17:44;;;;;;;12.23;3.75;;;;;;;;;;5056656;28;20082;-61
2022/05/22 06:20:14;;;;;;;8.85;3.90;;;;;;;;;;5057099;28;20082;-61
2022/05/22 06:22:42;;;;;;;11.50;3.75;;;;;;;;;;5051761;28;20500;-60
2022/05/22 06:25:10;;;;;;;13.15;3.80;;;;;;;;;;5063977;28;20044;-60
2022/05/22 06:27:36;;;;;;;8.77;4.00;;;;;;;;;;5068219;28;20051;-60
2022/05/22 06:30:03;;;;;;;10.73;3.97;;;;;;;;;;5052646;28;20025;-60
2022/05/22 06:32:29;;;;;;;10.23;4.10;;;;;;;;;;5060504;28;20096;-60
2022/05/22 06:34:56;;;;;;;10.07;4.20;;;;;;;;;;5060261;28;20112;-60
2022/05/22 06:37:22;;;;;;;6.05;3.70;;;;;;;;;;5062502;28;20029;-61
2022/05/22 06:39:51;;;;;;;9.70;4.07;;;;;;;;;;5057236;28;20040;-60
2022/05/22 06:42:27;;;;;;;7.32;3.97;;;;;;;;;;5062740;28;20366;-60
2022/05/22 06:45:13;;;;;;;4.68;3.47;;;;;;;;;;5059473;28;20031;-60
2022/05/22 06:47:41;;;;;;;9.90;3.58;;;;;;;;;;5052566;28;20033;-60
2022/05/22 06:50:13;;;;;;;10.73;4.40;;;;;;;;;;5061422;28;20024;-60
2022/05/22 06:52:39;;;;;;;6.43;3.88;;;;;;;;;;5065006;28;20504;-60
2022/05/22 06:55:06;;;;;;;5.55;3.50;;;;;;;;;;5061302;28;20032;-61
2022/05/22 06:57:31;;;;;;;5.80;3.80;;;;;;;;;;5065915;28;20037;-60
2022/05/22 06:59:59;;;;;;;5.10;3.30;;;;;;;;;;5054546;28;20043;-60
2022/05/22 07:02:29;;;;;;;6.70;3.83;;;;;;;;;;5051454;28;20050;-61
2022/05/22 07:04:59;;;;;;;7.57;3.42;;;;;;;;;;5052592;28;20043;-60
2022/05/22 07:07:25;;;;;;;7.57;3.40;;;;;;;;;;5058216;28;20048;-60
2022/05/22 07:09:51;;;;;;;14.48;3.83;;;;;;;;;;5058965;28;20116;-59
2022/05/22 07:12:18;;;;;;;9.63;4.03;;;;;;;;;;5057164;28;20039;-60
2022/05/22 07:14:46;;;;;;;10.73;3.85;;;;;;;;;;5061541;28;20073;-60
2022/05/22 07:17:13;;;;;;;10.05;3.30;;;;;;;;;;5054158;28;20374;-60
2022/05/22 07:19:44;;;;;;;8.32;4.00;;;;;;;;;;5063599;28;20173;-60
2022/05/22 07:22:10;;;;;;;6.43;3.20;;;;;;;;;;5055667;28;20041;-60
2022/05/22 07:24:36;;;;;;;4.40;3.13;;;;;;;;;;5060805;28;20400;-60
2022/05/22 07:27:03;;;;;;;5.85;3.00;;;;;;;;;;5063345;28;20025;-59
2022/05/22 07:29:29;;;;;;;8.60;3.40;;;;;;;;;;5053846;28;20017;-60
2022/05/22 07:31:56;;;;;;;6.00;3.20;;;;;;;;;;5064767;28;20078;-60
2022/05/22 07:34:26;;;;;;;5.18;3.30;;;;;;;;;;5060093;28;20021;-60
2022/05/22 07:36:57;;;;;;;12.23;3.50;;;;;;;;;;5055923;28;20057;-60
2022/05/22 07:39:23;;;;;;;8.88;3.30;;;;;;;;;;5060922;28;20025;-60
2022/05/22 07:41:49;;;;;;;6.38;3.05;;;;;;;;;;5060915;28;20028;-61
2022/05/22 07:44:15;;;;;;;9.65;3.58;;;;;;;;;;5056057;28;20020;-60
2022/05/22 07:46:40;;;;;;;5.07;3.15;;;;;;;;;;5056718;28;20029;-60
2022/05/22 07:49:06;;;;;;;10.98;3.05;;;;;;;;;;5056149;28;20031;-60
2022/05/22 07:51:32;;;;;;;7.35;3.10;;;;;;;;;;5053815;28;20580;-60
2022/05/22 07:53:58;;;;;;;13.27;3.22;;;;;;;;;;5060183;28;20021;-60
2022/05/22 07:56:23;;;;;;;6.13;3.63;;;;;;;;;;5055930;28;20051;-60
2022/05/22 07:58:50;;;;;;;8.10;3.55;;;;;;;;;;5060392;28;20481;-60
2022/05/22 08:01:17;;;;;;;5.53;3.58;;;;;;;;;;5052577;28;20037;-60
2022/05/22 08:03:44;;;;;;;7.50;3.58;;;;;;;;;;5057630;28;20050;-60
2022/05/22 08:06:10;;;;;;;8.88;3.47;;;;;;;;;;5070161;28;20049;-60
2022/05/22 08:08:37;;;;;;;6.78;3.47;;;;;;;;;;5053470;28;20028;-60
2022/05/22 08:11:03;;;;;;;6.22;3.15;;;;;;;;;;5064577;28;20595;-61
2022/05/22 08:13:29;;;;;;;9.93;3.78;;;;;;;;;;5051762;28;20036;-60
2022/05/22 08:15:55;;;;;;;8.13;3.28;;;;;;;;;;5055243;28;20051;-61
2022/05/22 08:18:21;;;;;;;5.55;2.90;;;;;;;;;;5062021;28;20052;-61
2022/05/22 08:20:49;;;;;;;6.95;2.97;;;;;;;;;;5064102;28;20039;-61
2022/05/22 08:23:23;;;;;;;6.90;3.42;;;;;;;;;;5059907;28;20044;-60
2022/05/22 08:25:49;;;;;;;8.18;3.20;;;;;;;;;;5047128;28;20039;-60
2022/05/22 08:28:16;;;;;;;12.38;3.60;;;;;;;;;;5065844;28;20039;-60
2022/05/22 08:30:42;;;;;;;6.60;3.10;;;;;;;;;;5056911;28;20039;-61
2022/05/22 08:33:09;;;;;;;6.45;3.53;;;;;;;;;;5065666;28;20139;-60
2022/05/22 08:35:37;;;;;;;5.60;3.10;;;;;;;;;;5056863;28;20041;-61
2022/05/22 08:38:04;;;;;;;3.80;2.92;;;;;;;;;;5061208;28;20029;-61
2022/05/22 08:40:52;;;;;;;7.18;3.05;;;;;;;;;;5054487;28;20044;-61
2022/05/22 08:43:33;;;;;;;6.97;3.38;;;;;;;;;;5059209;28;20632;-60
2022/05/22 08:46:06;;;;;;;12.07;3.47;;;;;;;;;;5061444;28;20439;-60
2022/05/22 08:48:40;;;;;;;9.20;2.90;;;;;;;;;;5064042;28;20028;-60
2022/05/22 08:51:14;;;;;;;6.45;3.65;;;;;;;;;;5053466;28;20040;-61
2022/05/22 08:53:48;;;;;;;5.68;2.88;;;;;;;;;;5062538;28;20032;-61
2022/05/22 08:59:10;;;;;;;4.05;2.58;;;;;;;;;;5055788;28;20024;-61
2022/05/22 09:01:36;;;;;;;14.02;3.53;;;;;;;;;;5058166;28;20101;-60
2022/05/22 09:04:26;;;;;;;6.10;3.00;;;;;;;;;;5067889;28;20381;-61
2022/05/22 09:07:16;;;;;;;7.78;3.38;;;;;;;;;;5065933;28;20059;-61
2022/05/22 09:09:46;;;;;;;9.73;2.55;;;;;;;;;;5065791;28;20085;-61
2022/05/22 09:12:39;;;;;;;14.55;3.40;;;;;;;;;;5068200;28;20032;-61
2022/05/22 09:15:44;;;;;;;6.40;3.38;;;;;;;;;;5060330;28;20490;-61
2022/05/22 09:18:32;;;;;;;8.93;3.20;;;;;;;;;;5014953;28;20088;-61
2022/05/22 09:21:31;;;;;;;10.55;3.20;;;;;;;;;;5009954;28;20093;-61
2022/05/22 09:24:05;;;;;;;10.10;3.40;;;;;;;;;;5013321;28;20501;-61
2022/05/22 09:26:39;;;;;;;10.15;3.10;;;;;;;;;;5010890;28;20032;-59
2022/05/22 09:29:16;;;;;;;8.80;3.45;;;;;;;;;;5015513;28;20133;-61
2022/05/22 09:32:16;;;;;;;11.30;3.17;;;;;;;;;;5018905;28;20153;-61
2022/05/22 09:34:41;;;;;;;11.73;3.25;;;;;;;;;;5015385;28;20141;-61
2022/05/22 09:37:38;;;;;;;7.35;3.35;;;;;;;;;;5010245;28;20117;-61
2022/05/22 09:40:14;;;;;;;9.10;3.80;;;;;;;;;;5011277;28;20041;-61
2022/05/22 09:43:01;;;;;;;8.88;3.80;;;;;;;;;;5007888;28;20035;-62
2022/05/22 09:45:46;;;;;;;14.48;3.95;;;;;;;;;;5012357;28;20528;-61
2022/05/22 09:48:20;;;;;;;12.93;4.18;;;;;;;;;;5008760;28;20049;-61
2022/05/22 09:51:01;;;;;;;11.88;4.30;;;;;;;;;;5007612;28;20038;-61
2022/05/22 09:53:52;;;;;;;11.73;5.28;;;;;;;;;;5011831;28;20052;-61
2022/05/22 09:56:40;;;;;;;6.97;3.83;;;;;;;;;;5057602;28;20036;-61
2022/05/22 09:59:42;;;;;;;13.60;4.50;;;;;;;;;;5058585;28;20039;-62
2022/05/22 10:02:26;;;;;;;;;;;;;;;;;;5055612;28;20537;-61
2022/05/22 10:05:27;;;;;;;11.65;4.13;;;;;;;;;;5060032;28;19951;-61
2022/05/22 10:08:25;;;;;;;12.77;4.38;;;;;;;;;;5054322;28;20024;-61
2022/05/22 10:11:14;;;;;;;11.25;4.15;;;;;;;;;;5067538;28;20085;-62
2022/05/22 10:14:05;;;;;;;8.13;3.72;;;;;;;;;;5054953;28;20086;-61
2022/05/22 10:16:58;;;;;;;15.82;4.35;;;;;;;;;;5055168;28;20452;-60
2022/05/22 10:19:49;;;;;;;12.77;4.28;;;;;;;;;;5059114;28;20032;-62
2022/05/22 10:22:42;;;;;;;14.30;4.35;;;;;;;;;;5057682;28;20055;-62
2022/05/22 10:25:47;;;;;;;11.10;4.15;;;;;;;;;;5054655;28;20036;-61
2022/05/22 10:28:22;;;;;;;11.73;5.13;;;;;;;;;;5057130;28;20715;-62
2022/05/22 10:31:12;;;;;;;11.07;4.95;;;;;;;;;;5063009;28;20125;-61
2022/05/22 10:34:04;;;;;;;9.50;4.38;;;;;;;;;;5060475;28;20036;-61
2022/05/22 10:36:37;;;;;;;12.98;4.72;;;;;;;;;;5065192;28;20033;-62
2022/05/22 10:39:09;;;;;;;13.13;4.47;;;;;;;;;;5063490;28;20503;-62
2022/05/22 10:44:45;;;;;;;12.68;5.00;;;;;;;;;;5055769;28;20033;-61
2022/05/22 10:47:12;;;;;;;17.85;5.47;;;;;;;;;;5053523;28;20104;-62
2022/05/22 10:49:40;;;;;;;10.35;4.72;;;;;;;;;;5049519;28;20028;-61
2022/05/22 10:52:07;;;;;;;12.93;5.22;;;;;;;;;;5064030;28;20060;-62
2022/05/22 10:54:35;;;;;;;12.32;5.10;;;;;;;;;;5069864;28;20409;-61
2022/05/22 10:57:11;;;;;;;13.00;5.30;;;;;;;;;;5058600;28;20135;-61
2022/05/22 10:59:38;;;;;;;14.43;5.10;;;;;;;;;;5056412;28;20037;-61
2022/05/22 11:02:04;;;;;;;15.57;5.47;;;;;;;;;;5054967;28;20040;-61
2022/05/22 11:04:40;;;;;;;14.75;5.35;;;;;;;;;;5051162;28;20029;-62
2022/05/22 11:07:07;;;;;;;15.23;5.95;;;;;;;;;;5051905;28;20071;-62
2022/05/22 11:09:45;;;;;;;21.08;5.90;;;;;;;;;;5057012;28;20085;-61
2022/05/22 11:12:18;;;;;;;18.48;6.28;;;;;;;;;;5055280;28;20033;-62
2022/05/22 11:14:43;;;;;;;19.67;5.18;;;;;;;;;;5059390;28;20115;-61
2022/05/22 11:17:09;;;;;;;19.60;6.30;;;;;;;;;;5063079;28;20103;-61
2022/05/22 11:19:40;;;;;;;20.58;5.93;;;;;;;;;;5057874;28;20447;-61
2022/05/22 11:22:15;;;;;;;12.30;5.25;;;;;;;;;;5063019;28;20040;-61
2022/05/22 11:24:59;;;;;;;10.85;4.50;;;;;;;;;;5063715;28;20119;-61
2022/05/22 11:27:46;;;;;;;18.52;6.05;;;;;;;;;;5058565;28;20043;-61
2022/05/22 11:30:19;;;;;;;17.20;5.60;;;;;;;;;;5058384;28;20132;-61
2022/05/22 11:32:56;;;;;;;11.77;5.30;;;;;;;;;;5060949;28;20731;-61
2022/05/22 11:35:51;;;;;;;13.48;5.95;;;;;;;;;;5056091;28;20665;-61
2022/05/22 11:38:43;;;;;;;18.77;5.82;;;;;;;;;;5053043;28;20481;-61
2022/05/22 11:41:28;;;;;;;20.30;4.97;;;;;;;;;;5056839;28;20500;-62
2022/05/22 11:44:06;;;;;;;11.32;5.35;;;;;;;;;;5053636;28;20081;-61
2022/05/22 11:47:02;;;;;;;17.63;5.13;;;;;;;;;;5064319;28;20096;-61
2022/05/22 11:49:58;;;;;;;12.00;4.78;;;;;;;;;;5071067;28;20043;-62
2022/05/22 11:52:57;;;;;;;14.40;5.60;;;;;;;;;;5067290;28;20489;-62
2022/05/22 11:55:54;;;;;;;12.70;5.30;;;;;;;;;;5065270;28;20049;-62
2022/05/22 11:58:35;;;;;;;18.50;4.82;;;;;;;;;;5072576;28;20078;-62
2022/05/22 12:01:23;;;;;;;15.05;5.13;;;;;;;;;;5063296;28;20077;-62
2022/05/22 12:04:26;;;;;;;10.57;5.00;;;;;;;;;;5070615;28;20514;-62
2022/05/22 12:07:06;;;;;;;12.38;4.70;;;;;;;;;;5063169;28;20051;-61
2022/05/22 12:10:04;;;;;;;15.27;5.47;;;;;;;;;;5069654;28;20036;-62
2022/05/22 12:12:46;;;;;;;15.55;4.80;;;;;;;;;;5061779;28;20462;-62
2022/05/22 12:15:17;;;;;;;12.38;5.07;;;;;;;;;;5060968;28;20441;-61
2022/05/22 12:17:49;;;;;;;11.05;4.45;;;;;;;;;;5055920;28;20032;-62
2022/05/22 12:20:24;;;;;;;14.75;4.95;;;;;;;;;;5061082;28;20021;-62
2022/05/22 12:23:08;;;;;;;14.10;4.80;;;;;;;;;;5060291;28;20032;-62
2022/05/22 12:25:40;;;;;;;12.32;4.70;;;;;;;;;;5057827;28;20028;-62
2022/05/22 12:28:27;;;;;;;9.15;4.43;;;;;;;;;;5068504;28;20058;-61
2022/05/22 12:30:55;;;;;;;15.73;4.90;;;;;;;;;;5057903;28;20086;-62
2022/05/22 12:33:22;;;;;;;17.25;6.22;;;;;;;;;;5056269;28;20029;-62
2022/05/22 12:35:48;;;;;;;12.00;4.88;;;;;;;;;;5058403;28;20027;-62
2022/05/22 12:38:14;;;;;;;18.40;5.07;;;;;;;;;;5065510;28;20115;-62
2022/05/22 12:41:00;;;;;;;14.95;5.38;;;;;;;;;;5066915;28;20040;-62
2022/05/22 12:43:28;;;;;;;12.40;4.32;;;;;;;;;;5054848;28;20035;-61
2022/05/22 12:46:03;;;;;;;13.00;4.55;;;;;;;;;;5064329;28;20083;-62
2022/05/22 12:48:32;;;;;;;12.38;4.55;;;;;;;;;;5063808;28;20021;-62
2022/05/22 12:51:36;;;;;;;11.32;4.28;;;;;;;;;;5056914;28;20028;-62
2022/05/22 12:54:22;;;;;;;15.70;5.10;;;;;;;;;;5055416;28;20386;-61
2022/05/22 12:56:48;;;;;;;11.57;4.43;;;;;;;;;;5057808;28;20055;-62
2022/05/22 12:59:22;;;;;;;15.43;4.75;;;;;;;;;;5059984;28;20024;-62
2022/05/22 13:01:56;;;;;;;10.13;4.47;;;;;;;;;;5066490;28;20413;-62
2022/05/22 13:04:35;;;;;;;15.27;5.50;;;;;;;;;;5063814;28;20511;-62
2022/05/22 13:07:09;;;;;;;12.77;4.45;;;;;;;;;;5055259;28;20032;-62
2022/05/22 13:09:40;;;;;;;12.88;4.60;;;;;;;;;;5060114;28;20048;-61
2022/05/22 13:12:15;;;;;;;12.38;4.35;;;;;;;;;;5056695;28;20021;-61
2022/05/22 13:14:47;;;;;;;8.25;4.10;;;;;;;;;;5063875;28;20033;-61
2022/05/22 13:17:15;;;;;;;11.27;4.43;;;;;;;;;;5063826;28;20515;-61
2022/05/22 13:19:50;;;;;;;8.38;3.80;;;;;;;;;;5056902;28;20393;-61
2022/05/22 13:22:45;;;;;;;7.15;3.63;;;;;;;;;;5055879;28;20094;-62
2022/05/22 13:25:30;;;;;;;9.93;4.22;;;;;;;;;;5045996;28;20039;-59
2022/05/22 13:27:56;;;;;;;14.85;4.70;;;;;;;;;;5065486;28;20032;-61
2022/05/22 13:30:26;;;;;;;9.70;4.15;;;;;;;;;;5066186;28;20363;-62
2022/05/22 13:32:58;;;;;;;13.70;3.72;;;;;;;;;;5062916;28;20044;-62
2022/05/22 13:35:27;;;;;;;7.88;3.70;;;;;;;;;;5060412;28;20040;-62
2022/05/22 13:37:55;;;;;;;18.25;4.93;;;;;;;;;;5055129;28;20110;-61
2022/05/22 13:40:48;;;;;;;13.18;4.22;;;;;;;;;;5060116;28;20040;-62
2022/05/22 13:43:29;;;;;;;13.90;4.10;;;;;;;;;;5054037;28;20066;-61
2022/05/22 13:46:32;;;;;;;15.50;4.30;;;;;;;;;;5063189;28;22430;-62
2022/05/22 13:49:23;;;;;;;11.07;4.18;;;;;;;;;;5058325;28;20044;-62
2022/05/22 13:54:53;;;;;;;15.07;3.75;;;;;;;;;;5062887;28;20048;-62
2022/05/22 13:57:22;;;;;;;7.28;4.20;;;;;;;;;;5056930;28;20053;-62
2022/05/22 13:59:56;;;;;;;12.30;4.05;;;;;;;;;;5057739;28;20053;-62
2022/05/22 14:02:31;;;;;;;13.57;4.20;;;;;;;;;;5063720;28;20064;-62
2022/05/22 14:04:58;;;;;;;13.05;4.72;;;;;;;;;;5064769;28;20052;-62
2022/05/22 14:07:49;;;;;;;13.15;4.10;;;;;;;;;;5065225;28;20029;-62
2022/05/22 14:10:17;;;;;;;17.65;4.28;;;;;;;;;;5066244;28;20265;-62
2022/05/22 14:12:44;;;;;;;18.85;4.38;;;;;;;;;;5056341;28;20037;-62
2022/05/22 14:15:11;;;;;;;9.50;3.45;;;;;;;;;;5061097;28;20387;-62
2022/05/22 14:17:37;;;;;;;11.05;4.10;;;;;;;;;;5058006;28;20392;-62
2022/05/22 14:20:16;;;;;;;16.08;4.03;;;;;;;;;;5069903;28;20023;-61
2022/05/22 14:22:45;;;;;;;13.88;4.00;;;;;;;;;;5056985;28;20118;-62
2022/05/22 14:25:16;;;;;;;9.27;4.00;;;;;;;;;;5064280;28;20123;-58
2022/05/22 14:27:51;;;;;;;13.10;4.10;;;;;;;;;;5059641;28;20170;-62
2022/05/22 14:30:33;;;;;;;10.70;4.03;;;;;;;;;;5066444;28;20024;-61
2022/05/22 14:33:05;;;;;;;14.15;4.28;;;;;;;;;;5057425;28;20032;-62
2022/05/22 14:35:40;;;;;;;14.25;3.97;;;;;;;;;;5061584;28;20056;-61
2022/05/22 14:38:16;;;;;;;118.35;9.40;;;;;;;;;;5059072;28;20363;-62
2022/05/22 14:41:01;;;;;;;17.23;4.55;;;;;;;;;;5057537;28;20445;-62
2022/05/22 14:43:33;;;;;;;8.80;3.67;;;;;;;;;;5059136;28;20031;-61
2022/05/22 14:46:00;;;;;;;8.98;3.35;;;;;;;;;;5058598;28;20036;-62
2022/05/22 14:48:29;;;;;;;14.88;3.58;;;;;;;;;;5058422;28;20032;-62
2022/05/22 14:51:18;;;;;;;12.00;3.67;;;;;;;;;;5058122;28;20021;-62
2022/05/22 14:53:45;;;;;;;12.45;3.78;;;;;;;;;;5060200;28;20066;-63
2022/05/22 14:56:23;;;;;;;13.00;4.28;;;;;;;;;;5061230;28;20048;-62
2022/05/22 14:59:00;;;;;;;7.15;3.33;;;;;;;;;;5068169;28;20124;-62
2022/05/22 15:01:37;;;;;;;10.73;3.28;;;;;;;;;;5054375;28;20939;-62
2022/05/22 15:04:05;;;;;;;11.00;3.45;;;;;;;;;;5063513;28;20032;-62
2022/05/22 15:06:42;;;;;;;9.27;3.88;;;;;;;;;;5059715;28;20021;-62
2022/05/22 15:09:09;;;;;;;13.30;4.07;;;;;;;;;;5063607;28;20028;-62
2022/05/22 15:11:40;;;;;;;17.63;4.28;;;;;;;;;;5059097;28;20033;-61
2022/05/22 15:14:15;;;;;;;10.75;3.67;;;;;;;;;;5063192;28;20103;-62
2022/05/22 15:16:42;;;;;;;11.70;3.88;;;;;;;;;;5066205;28;20040;-62
2022/05/22 15:25:29;;;;;;;10.98;4.15;;;;;;;;;;5060389;28;20039;-62
2022/05/22 15:28:10;;;;;;;14.32;4.53;;;;;;;;;;5061518;28;20033;-61